sensor_id;sensor_type;location;lat;lon;timestamp;P1;durP1;ratioP1;P2;durP2;ratioP2
50569;SDS011;36525;49.398;7.614;2023-04-06T00:01:18;19.77;;;9.93;;
50569;SDS011;36525;49.398;7.614;2023-04-06T00:03:45;21.15;;;10.43;;
50569;SDS011;36525;49.398;7.614;2023-04-06T00:06:12;17.60;;;9.25;;
50569;SDS011;36525;49.398;7.614;2023-04-06T00:08:42;22.10;;;10.65;;
50569;SDS011;36525;49.398;7.614;2023-04-06T00:11:10;18.67;;;9.98;;
50569;SDS011;36525;49.398;7.614;2023-04-06T00:13:37;23.58;;;10.20;;
50569;SDS011;36525;49.398;7.614;2023-04-06T00:16:05;22.00;;;10.55;;
50569;SDS011;36525;49.398;7.614;2023-04-06T00:18:32;18.95;;;9.50;;
50569;SDS011;36525;49.398;7.614;2023-04-06T00:20:59;19.23;;;10.95;;
50569;SDS011;36525;49.398;7.614;2023-04-06T00:23:27;20.42;;;10.93;;
50569;SDS011;36525;49.398;7.614;2023-04-06T00:25:54;24.25;;;11.75;;
50569;SDS011;36525;49.398;7.614;2023-04-06T00:28:22;20.00;;;10.20;;
50569;SDS011;36525;49.398;7.614;2023-04-06T00:30:52;18.55;;;10.05;;
50569;SDS011;36525;49.398;7.614;2023-04-06T00:33:21;19.05;;;9.90;;
50569;SDS011;36525;49.398;7.614;2023-04-06T00:35:49;18.73;;;9.77;;
50569;SDS011;36525;49.398;7.614;2023-04-06T00:38:17;19.38;;;10.00;;
50569;SDS011;36525;49.398;7.614;2023-04-06T00:40:44;19.67;;;9.57;;
50569;SDS011;36525;49.398;7.614;2023-04-06T00:43:12;18.80;;;9.50;;
50569;SDS011;36525;49.398;7.614;2023-04-06T00:45:40;18.98;;;9.95;;
50569;SDS011;36525;49.398;7.614;2023-04-06T00:48:08;17.08;;;9.18;;
50569;SDS011;36525;49.398;7.614;2023-04-06T00:50:36;16.83;;;9.05;;
50569;SDS011;36525;49.398;7.614;2023-04-06T00:53:03;14.45;;;8.88;;
50569;SDS011;36525;49.398;7.614;2023-04-06T00:55:30;16.02;;;9.05;;
50569;SDS011;36525;49.398;7.614;2023-04-06T00:57:58;14.27;;;9.30;;
50569;SDS011;36525;49.398;7.614;2023-04-06T01:00:27;14.80;;;8.88;;
50569;SDS011;36525;49.398;7.614;2023-04-06T01:02:54;16.02;;;8.98;;
50569;SDS011;36525;49.398;7.614;2023-04-06T01:05:21;14.18;;;8.45;;
50569;SDS011;36525;49.398;7.614;2023-04-06T01:07:48;15.85;;;8.15;;
50569;SDS011;36525;49.398;7.614;2023-04-06T01:10:23;12.48;;;8.05;;
50569;SDS011;36525;49.398;7.614;2023-04-06T01:12:52;13.40;;;7.13;;
50569;SDS011;36525;49.398;7.614;2023-04-06T01:15:20;19.60;;;9.63;;
50569;SDS011;36525;49.398;7.614;2023-04-06T01:17:50;18.85;;;9.68;;
50569;SDS011;36525;49.398;7.614;2023-04-06T01:20:18;23.00;;;9.80;;
50569;SDS011;36525;49.398;7.614;2023-04-06T01:22:45;22.65;;;9.93;;
50569;SDS011;36525;49.398;7.614;2023-04-06T01:25:13;19.17;;;9.98;;
50569;SDS011;36525;49.398;7.614;2023-04-06T01:27:41;17.02;;;9.80;;
50569;SDS011;36525;49.398;7.614;2023-04-06T01:30:08;16.65;;;9.10;;
50569;SDS011;36525;49.398;7.614;2023-04-06T01:32:36;17.33;;;10.85;;
50569;SDS011;36525;49.398;7.614;2023-04-06T01:35:03;20.23;;;11.20;;
50569;SDS011;36525;49.398;7.614;2023-04-06T01:37:31;19.15;;;10.43;;
50569;SDS011;36525;49.398;7.614;2023-04-06T01:39:59;19.30;;;10.13;;
50569;SDS011;36525;49.398;7.614;2023-04-06T01:42:26;21.45;;;10.23;;
50569;SDS011;36525;49.398;7.614;2023-04-06T01:44:54;18.42;;;10.30;;
50569;SDS011;36525;49.398;7.614;2023-04-06T01:47:21;21.95;;;11.07;;
50569;SDS011;36525;49.398;7.614;2023-04-06T01:49:48;20.00;;;11.15;;
50569;SDS011;36525;49.398;7.614;2023-04-06T01:52:16;17.35;;;10.30;;
50569;SDS011;36525;49.398;7.614;2023-04-06T01:54:43;21.65;;;12.43;;
50569;SDS011;36525;49.398;7.614;2023-04-06T01:57:13;23.23;;;11.82;;
50569;SDS011;36525;49.398;7.614;2023-04-06T01:59:40;22.42;;;12.80;;
50569;SDS011;36525;49.398;7.614;2023-04-06T02:02:07;18.90;;;11.25;;
50569;SDS011;36525;49.398;7.614;2023-04-06T02:04:34;18.10;;;10.80;;
50569;SDS011;36525;49.398;7.614;2023-04-06T02:07:01;20.20;;;11.15;;
50569;SDS011;36525;49.398;7.614;2023-04-06T02:09:32;22.08;;;12.77;;
50569;SDS011;36525;49.398;7.614;2023-04-06T02:11:59;22.35;;;11.10;;
50569;SDS011;36525;49.398;7.614;2023-04-06T02:14:27;21.45;;;11.43;;
50569;SDS011;36525;49.398;7.614;2023-04-06T02:16:54;19.63;;;10.70;;
50569;SDS011;36525;49.398;7.614;2023-04-06T02:19:22;20.45;;;11.23;;
50569;SDS011;36525;49.398;7.614;2023-04-06T02:21:49;20.92;;;11.48;;
50569;SDS011;36525;49.398;7.614;2023-04-06T02:24:16;21.77;;;11.25;;
50569;SDS011;36525;49.398;7.614;2023-04-06T02:26:43;18.73;;;10.70;;
50569;SDS011;36525;49.398;7.614;2023-04-06T02:29:10;20.10;;;10.75;;
50569;SDS011;36525;49.398;7.614;2023-04-06T02:31:37;22.58;;;10.77;;
50569;SDS011;36525;49.398;7.614;2023-04-06T02:34:04;15.18;;;9.70;;
50569;SDS011;36525;49.398;7.614;2023-04-06T02:36:31;19.65;;;9.68;;
50569;SDS011;36525;49.398;7.614;2023-04-06T02:38:58;16.73;;;9.63;;
50569;SDS011;36525;49.398;7.614;2023-04-06T02:41:26;17.35;;;8.98;;
50569;SDS011;36525;49.398;7.614;2023-04-06T02:43:53;17.73;;;9.32;;
50569;SDS011;36525;49.398;7.614;2023-04-06T02:46:20;14.43;;;9.23;;
50569;SDS011;36525;49.398;7.614;2023-04-06T02:48:48;18.10;;;10.02;;
50569;SDS011;36525;49.398;7.614;2023-04-06T02:51:16;18.52;;;10.40;;
50569;SDS011;36525;49.398;7.614;2023-04-06T02:53:43;16.27;;;9.57;;
50569;SDS011;36525;49.398;7.614;2023-04-06T02:56:10;15.15;;;9.88;;
50569;SDS011;36525;49.398;7.614;2023-04-06T02:58:37;18.50;;;10.70;;
50569;SDS011;36525;49.398;7.614;2023-04-06T03:01:05;17.27;;;10.65;;
50569;SDS011;36525;49.398;7.614;2023-04-06T03:03:32;16.67;;;10.30;;
50569;SDS011;36525;49.398;7.614;2023-04-06T03:05:59;16.60;;;11.90;;
50569;SDS011;36525;49.398;7.614;2023-04-06T03:08:26;15.95;;;10.07;;
50569;SDS011;36525;49.398;7.614;2023-04-06T03:10:53;17.92;;;10.80;;
50569;SDS011;36525;49.398;7.614;2023-04-06T03:13:20;16.77;;;10.82;;
50569;SDS011;36525;49.398;7.614;2023-04-06T03:15:47;17.67;;;9.77;;
50569;SDS011;36525;49.398;7.614;2023-04-06T03:18:15;18.02;;;10.15;;
50569;SDS011;36525;49.398;7.614;2023-04-06T03:20:44;16.83;;;10.75;;
50569;SDS011;36525;49.398;7.614;2023-04-06T03:23:11;22.30;;;11.07;;
50569;SDS011;36525;49.398;7.614;2023-04-06T03:25:38;18.77;;;11.18;;
50569;SDS011;36525;49.398;7.614;2023-04-06T03:28:06;19.45;;;12.07;;
50569;SDS011;36525;49.398;7.614;2023-04-06T03:30:33;18.85;;;11.52;;
50569;SDS011;36525;49.398;7.614;2023-04-06T03:33:01;21.52;;;11.15;;
50569;SDS011;36525;49.398;7.614;2023-04-06T03:35:30;23.48;;;12.52;;
50569;SDS011;36525;49.398;7.614;2023-04-06T03:37:58;18.52;;;11.00;;
50569;SDS011;36525;49.398;7.614;2023-04-06T03:40:25;20.70;;;12.10;;
50569;SDS011;36525;49.398;7.614;2023-04-06T03:42:52;18.95;;;11.80;;
50569;SDS011;36525;49.398;7.614;2023-04-06T03:45:19;19.55;;;10.63;;
50569;SDS011;36525;49.398;7.614;2023-04-06T03:47:46;17.50;;;10.18;;
50569;SDS011;36525;49.398;7.614;2023-04-06T03:50:13;14.95;;;9.75;;
50569;SDS011;36525;49.398;7.614;2023-04-06T03:52:41;20.23;;;9.38;;
50569;SDS011;36525;49.398;7.614;2023-04-06T03:55:08;15.45;;;9.48;;
50569;SDS011;36525;49.398;7.614;2023-04-06T03:57:35;18.00;;;10.18;;
50569;SDS011;36525;49.398;7.614;2023-04-06T04:00:04;16.15;;;9.57;;
50569;SDS011;36525;49.398;7.614;2023-04-06T04:02:32;14.63;;;9.00;;
50569;SDS011;36525;49.398;7.614;2023-04-06T04:04:59;17.27;;;9.55;;
50569;SDS011;36525;49.398;7.614;2023-04-06T04:07:26;22.92;;;12.65;;
50569;SDS011;36525;49.398;7.614;2023-04-06T04:09:54;23.02;;;10.88;;
50569;SDS011;36525;49.398;7.614;2023-04-06T04:12:21;16.83;;;9.10;;
50569;SDS011;36525;49.398;7.614;2023-04-06T04:14:48;17.75;;;9.10;;
50569;SDS011;36525;49.398;7.614;2023-04-06T04:17:15;19.17;;;10.60;;
50569;SDS011;36525;49.398;7.614;2023-04-06T04:19:42;19.27;;;10.63;;
50569;SDS011;36525;49.398;7.614;2023-04-06T04:22:09;25.17;;;12.68;;
50569;SDS011;36525;49.398;7.614;2023-04-06T04:24:36;21.05;;;11.45;;
50569;SDS011;36525;49.398;7.614;2023-04-06T04:27:03;16.63;;;8.23;;
50569;SDS011;36525;49.398;7.614;2023-04-06T04:29:31;20.95;;;8.82;;
50569;SDS011;36525;49.398;7.614;2023-04-06T04:31:58;14.82;;;8.75;;
50569;SDS011;36525;49.398;7.614;2023-04-06T04:34:25;16.17;;;9.40;;
50569;SDS011;36525;49.398;7.614;2023-04-06T04:36:52;18.85;;;9.68;;
50569;SDS011;36525;49.398;7.614;2023-04-06T04:39:19;17.70;;;10.32;;
50569;SDS011;36525;49.398;7.614;2023-04-06T04:41:47;15.25;;;9.77;;
50569;SDS011;36525;49.398;7.614;2023-04-06T04:44:14;19.08;;;11.35;;
50569;SDS011;36525;49.398;7.614;2023-04-06T04:46:41;16.92;;;10.23;;
50569;SDS011;36525;49.398;7.614;2023-04-06T04:49:08;16.20;;;10.18;;
50569;SDS011;36525;49.398;7.614;2023-04-06T04:51:35;22.15;;;10.52;;
50569;SDS011;36525;49.398;7.614;2023-04-06T04:54:03;20.50;;;10.45;;
50569;SDS011;36525;49.398;7.614;2023-04-06T04:56:31;22.13;;;12.70;;
50569;SDS011;36525;49.398;7.614;2023-04-06T04:58:58;29.38;;;14.60;;
50569;SDS011;36525;49.398;7.614;2023-04-06T05:01:26;20.58;;;13.93;;
50569;SDS011;36525;49.398;7.614;2023-04-06T05:03:54;19.20;;;12.52;;
50569;SDS011;36525;49.398;7.614;2023-04-06T05:06:21;15.18;;;10.70;;
50569;SDS011;36525;49.398;7.614;2023-04-06T05:08:48;14.50;;;9.63;;
50569;SDS011;36525;49.398;7.614;2023-04-06T05:11:15;14.50;;;9.20;;
50569;SDS011;36525;49.398;7.614;2023-04-06T05:13:42;15.10;;;10.60;;
50569;SDS011;36525;49.398;7.614;2023-04-06T05:16:10;17.40;;;10.57;;
50569;SDS011;36525;49.398;7.614;2023-04-06T05:18:37;18.70;;;10.27;;
50569;SDS011;36525;49.398;7.614;2023-04-06T05:21:04;19.88;;;11.70;;
50569;SDS011;36525;49.398;7.614;2023-04-06T05:23:31;24.08;;;11.88;;
50569;SDS011;36525;49.398;7.614;2023-04-06T05:25:59;16.08;;;9.90;;
50569;SDS011;36525;49.398;7.614;2023-04-06T05:28:26;23.02;;;11.32;;
50569;SDS011;36525;49.398;7.614;2023-04-06T05:30:53;18.98;;;10.98;;
50569;SDS011;36525;49.398;7.614;2023-04-06T05:33:20;19.05;;;10.18;;
50569;SDS011;36525;49.398;7.614;2023-04-06T05:35:52;18.13;;;9.77;;
50569;SDS011;36525;49.398;7.614;2023-04-06T05:38:20;15.80;;;10.48;;
50569;SDS011;36525;49.398;7.614;2023-04-06T05:40:47;18.63;;;10.75;;
50569;SDS011;36525;49.398;7.614;2023-04-06T05:43:14;16.17;;;9.55;;
50569;SDS011;36525;49.398;7.614;2023-04-06T05:45:43;19.30;;;10.98;;
50569;SDS011;36525;49.398;7.614;2023-04-06T05:48:11;21.63;;;12.02;;
50569;SDS011;36525;49.398;7.614;2023-04-06T05:50:39;18.95;;;10.90;;
50569;SDS011;36525;49.398;7.614;2023-04-06T05:53:06;16.38;;;9.80;;
50569;SDS011;36525;49.398;7.614;2023-04-06T05:55:33;18.63;;;10.57;;
50569;SDS011;36525;49.398;7.614;2023-04-06T05:58:00;23.00;;;10.10;;
50569;SDS011;36525;49.398;7.614;2023-04-06T06:00:27;20.25;;;10.55;;
50569;SDS011;36525;49.398;7.614;2023-04-06T06:02:54;19.90;;;11.75;;
50569;SDS011;36525;49.398;7.614;2023-04-06T06:05:21;22.02;;;12.57;;
50569;SDS011;36525;49.398;7.614;2023-04-06T06:07:48;23.90;;;13.43;;
50569;SDS011;36525;49.398;7.614;2023-04-06T06:10:16;20.95;;;11.60;;
50569;SDS011;36525;49.398;7.614;2023-04-06T06:12:43;17.98;;;10.48;;
50569;SDS011;36525;49.398;7.614;2023-04-06T06:15:10;18.67;;;11.65;;
50569;SDS011;36525;49.398;7.614;2023-04-06T06:17:37;18.05;;;10.48;;
50569;SDS011;36525;49.398;7.614;2023-04-06T06:20:06;15.70;;;9.57;;
50569;SDS011;36525;49.398;7.614;2023-04-06T06:22:34;20.10;;;10.93;;
50569;SDS011;36525;49.398;7.614;2023-04-06T06:25:02;18.52;;;10.35;;
50569;SDS011;36525;49.398;7.614;2023-04-06T06:27:30;21.55;;;10.55;;
50569;SDS011;36525;49.398;7.614;2023-04-06T06:29:57;19.08;;;9.88;;
50569;SDS011;36525;49.398;7.614;2023-04-06T06:32:24;14.77;;;9.98;;
50569;SDS011;36525;49.398;7.614;2023-04-06T06:34:52;14.65;;;8.90;;
50569;SDS011;36525;49.398;7.614;2023-04-06T06:37:20;16.75;;;10.32;;
50569;SDS011;36525;49.398;7.614;2023-04-06T06:39:47;15.57;;;8.80;;
50569;SDS011;36525;49.398;7.614;2023-04-06T06:42:14;14.20;;;8.95;;
50569;SDS011;36525;49.398;7.614;2023-04-06T06:44:41;14.80;;;8.60;;
50569;SDS011;36525;49.398;7.614;2023-04-06T06:47:08;14.98;;;8.68;;
50569;SDS011;36525;49.398;7.614;2023-04-06T06:49:35;11.50;;;6.63;;
50569;SDS011;36525;49.398;7.614;2023-04-06T06:52:02;14.55;;;7.35;;
50569;SDS011;36525;49.398;7.614;2023-04-06T06:54:30;12.43;;;7.95;;
50569;SDS011;36525;49.398;7.614;2023-04-06T06:56:56;14.32;;;7.95;;
50569;SDS011;36525;49.398;7.614;2023-04-06T06:59:24;11.40;;;7.28;;
50569;SDS011;36525;49.398;7.614;2023-04-06T07:01:51;14.00;;;6.95;;
50569;SDS011;36525;49.398;7.614;2023-04-06T07:04:18;10.82;;;6.45;;
50569;SDS011;36525;49.398;7.614;2023-04-06T07:06:45;12.20;;;6.53;;
50569;SDS011;36525;49.398;7.614;2023-04-06T07:09:12;12.73;;;7.03;;
50569;SDS011;36525;49.398;7.614;2023-04-06T07:11:39;13.55;;;7.38;;
50569;SDS011;36525;49.398;7.614;2023-04-06T07:14:07;13.50;;;6.93;;
50569;SDS011;36525;49.398;7.614;2023-04-06T07:16:34;10.57;;;6.00;;
50569;SDS011;36525;49.398;7.614;2023-04-06T07:19:01;13.57;;;7.45;;
50569;SDS011;36525;49.398;7.614;2023-04-06T07:21:28;10.38;;;6.40;;
50569;SDS011;36525;49.398;7.614;2023-04-06T07:23:55;10.45;;;5.72;;
50569;SDS011;36525;49.398;7.614;2023-04-06T07:26:23;10.90;;;5.50;;
50569;SDS011;36525;49.398;7.614;2023-04-06T07:28:51;11.88;;;6.97;;
50569;SDS011;36525;49.398;7.614;2023-04-06T07:31:18;10.82;;;5.90;;
50569;SDS011;36525;49.398;7.614;2023-04-06T07:33:46;12.30;;;6.35;;
50569;SDS011;36525;49.398;7.614;2023-04-06T07:36:13;11.77;;;6.00;;
50569;SDS011;36525;49.398;7.614;2023-04-06T07:38:41;15.88;;;6.45;;
50569;SDS011;36525;49.398;7.614;2023-04-06T07:41:08;11.55;;;6.47;;
50569;SDS011;36525;49.398;7.614;2023-04-06T07:43:35;10.85;;;5.95;;
50569;SDS011;36525;49.398;7.614;2023-04-06T07:46:02;8.82;;;5.63;;
50569;SDS011;36525;49.398;7.614;2023-04-06T07:48:30;13.77;;;6.05;;
50569;SDS011;36525;49.398;7.614;2023-04-06T07:51:03;10.48;;;5.63;;
50569;SDS011;36525;49.398;7.614;2023-04-06T07:53:31;11.70;;;6.10;;
50569;SDS011;36525;49.398;7.614;2023-04-06T07:55:58;12.77;;;6.07;;
50569;SDS011;36525;49.398;7.614;2023-04-06T07:58:26;11.43;;;6.30;;
50569;SDS011;36525;49.398;7.614;2023-04-06T08:00:53;11.88;;;6.05;;
50569;SDS011;36525;49.398;7.614;2023-04-06T08:03:21;10.65;;;6.40;;
50569;SDS011;36525;49.398;7.614;2023-04-06T08:05:52;13.38;;;6.85;;
50569;SDS011;36525;49.398;7.614;2023-04-06T08:08:19;12.82;;;6.10;;
50569;SDS011;36525;49.398;7.614;2023-04-06T08:10:48;11.88;;;6.43;;
50569;SDS011;36525;49.398;7.614;2023-04-06T08:13:15;11.70;;;6.65;;
50569;SDS011;36525;49.398;7.614;2023-04-06T08:15:42;13.88;;;6.63;;
50569;SDS011;36525;49.398;7.614;2023-04-06T08:18:10;10.68;;;6.28;;
50569;SDS011;36525;49.398;7.614;2023-04-06T08:20:37;10.18;;;6.32;;
50569;SDS011;36525;49.398;7.614;2023-04-06T08:23:05;11.63;;;7.50;;
50569;SDS011;36525;49.398;7.614;2023-04-06T08:25:36;10.48;;;6.00;;
50569;SDS011;36525;49.398;7.614;2023-04-06T08:28:03;11.23;;;6.57;;
50569;SDS011;36525;49.398;7.614;2023-04-06T08:30:31;14.57;;;7.18;;
50569;SDS011;36525;49.398;7.614;2023-04-06T08:32:58;13.75;;;8.07;;
50569;SDS011;36525;49.398;7.614;2023-04-06T08:35:26;11.85;;;7.38;;
50569;SDS011;36525;49.398;7.614;2023-04-06T08:37:53;12.57;;;7.32;;
50569;SDS011;36525;49.398;7.614;2023-04-06T08:40:20;11.40;;;6.95;;
50569;SDS011;36525;49.398;7.614;2023-04-06T08:42:54;10.50;;;6.57;;
50569;SDS011;36525;49.398;7.614;2023-04-06T08:45:22;19.25;;;9.52;;
50569;SDS011;36525;49.398;7.614;2023-04-06T08:47:49;15.05;;;8.48;;
50569;SDS011;36525;49.398;7.614;2023-04-06T08:50:18;15.77;;;8.80;;
50569;SDS011;36525;49.398;7.614;2023-04-06T08:52:49;17.25;;;8.80;;
50569;SDS011;36525;49.398;7.614;2023-04-06T08:55:16;13.88;;;8.00;;
50569;SDS011;36525;49.398;7.614;2023-04-06T08:57:43;12.70;;;6.60;;
50569;SDS011;36525;49.398;7.614;2023-04-06T09:00:12;10.70;;;6.82;;
50569;SDS011;36525;49.398;7.614;2023-04-06T09:02:42;12.65;;;6.75;;
50569;SDS011;36525;49.398;7.614;2023-04-06T09:05:11;8.95;;;5.78;;
50569;SDS011;36525;49.398;7.614;2023-04-06T09:07:39;9.70;;;6.53;;
50569;SDS011;36525;49.398;7.614;2023-04-06T09:10:07;9.38;;;6.35;;
50569;SDS011;36525;49.398;7.614;2023-04-06T09:12:34;9.57;;;5.88;;
50569;SDS011;36525;49.398;7.614;2023-04-06T09:15:02;9.77;;;7.15;;
50569;SDS011;36525;49.398;7.614;2023-04-06T09:17:31;8.85;;;5.88;;
50569;SDS011;36525;49.398;7.614;2023-04-06T09:20:00;12.02;;;6.93;;
50569;SDS011;36525;49.398;7.614;2023-04-06T09:22:38;9.50;;;6.32;;
50569;SDS011;36525;49.398;7.614;2023-04-06T09:25:08;10.82;;;6.30;;
50569;SDS011;36525;49.398;7.614;2023-04-06T09:27:37;10.93;;;6.13;;
50569;SDS011;36525;49.398;7.614;2023-04-06T09:30:08;10.23;;;7.03;;
50569;SDS011;36525;49.398;7.614;2023-04-06T09:32:58;10.13;;;6.00;;
50569;SDS011;36525;49.398;7.614;2023-04-06T09:35:26;9.38;;;6.03;;
50569;SDS011;36525;49.398;7.614;2023-04-06T09:37:53;12.30;;;6.15;;
50569;SDS011;36525;49.398;7.614;2023-04-06T09:40:21;11.88;;;6.50;;
50569;SDS011;36525;49.398;7.614;2023-04-06T09:42:49;9.30;;;6.40;;
50569;SDS011;36525;49.398;7.614;2023-04-06T09:45:19;13.10;;;7.10;;
50569;SDS011;36525;49.398;7.614;2023-04-06T09:47:47;9.57;;;6.28;;
50569;SDS011;36525;49.398;7.614;2023-04-06T09:50:20;9.88;;;6.00;;
50569;SDS011;36525;49.398;7.614;2023-04-06T09:52:50;9.85;;;6.43;;
50569;SDS011;36525;49.398;7.614;2023-04-06T09:55:22;12.23;;;6.68;;
50569;SDS011;36525;49.398;7.614;2023-04-06T09:58:07;8.98;;;6.47;;
50569;SDS011;36525;49.398;7.614;2023-04-06T10:00:43;9.70;;;6.13;;
50569;SDS011;36525;49.398;7.614;2023-04-06T10:06:05;11.18;;;7.72;;
50569;SDS011;36525;49.398;7.614;2023-04-06T10:08:38;10.43;;;6.43;;
50569;SDS011;36525;49.398;7.614;2023-04-06T10:11:08;13.32;;;6.90;;
50569;SDS011;36525;49.398;7.614;2023-04-06T10:13:37;9.70;;;6.15;;
50569;SDS011;36525;49.398;7.614;2023-04-06T10:16:04;10.45;;;6.93;;
50569;SDS011;36525;49.398;7.614;2023-04-06T10:18:32;14.05;;;6.93;;
50569;SDS011;36525;49.398;7.614;2023-04-06T10:21:01;9.85;;;6.93;;
50569;SDS011;36525;49.398;7.614;2023-04-06T10:23:35;10.40;;;6.22;;
50569;SDS011;36525;49.398;7.614;2023-04-06T10:28:40;9.02;;;5.35;;
50569;SDS011;36525;49.398;7.614;2023-04-06T10:31:09;12.57;;;6.47;;
50569;SDS011;36525;49.398;7.614;2023-04-06T10:33:36;8.88;;;5.93;;
50569;SDS011;36525;49.398;7.614;2023-04-06T10:36:13;8.35;;;5.53;;
50569;SDS011;36525;49.398;7.614;2023-04-06T10:38:53;14.15;;;6.65;;
50569;SDS011;36525;49.398;7.614;2023-04-06T10:41:33;12.50;;;6.20;;
50569;SDS011;36525;49.398;7.614;2023-04-06T10:44:16;9.05;;;5.97;;
50569;SDS011;36525;49.398;7.614;2023-04-06T10:46:57;9.60;;;5.50;;
50569;SDS011;36525;49.398;7.614;2023-04-06T10:49:29;9.35;;;5.32;;
50569;SDS011;36525;49.398;7.614;2023-04-06T10:51:56;8.63;;;5.47;;
50569;SDS011;36525;49.398;7.614;2023-04-06T10:54:24;11.48;;;5.97;;
50569;SDS011;36525;49.398;7.614;2023-04-06T10:56:53;12.23;;;6.05;;
50569;SDS011;36525;49.398;7.614;2023-04-06T10:59:20;14.05;;;6.53;;
50569;SDS011;36525;49.398;7.614;2023-04-06T11:01:48;11.88;;;7.10;;
50569;SDS011;36525;49.398;7.614;2023-04-06T11:04:19;11.50;;;7.22;;
50569;SDS011;36525;49.398;7.614;2023-04-06T11:06:48;12.00;;;6.80;;
50569;SDS011;36525;49.398;7.614;2023-04-06T11:09:23;10.52;;;6.78;;
50569;SDS011;36525;49.398;7.614;2023-04-06T11:11:54;11.13;;;7.13;;
50569;SDS011;36525;49.398;7.614;2023-04-06T11:14:23;12.27;;;6.75;;
50569;SDS011;36525;49.398;7.614;2023-04-06T11:16:50;11.98;;;6.65;;
50569;SDS011;36525;49.398;7.614;2023-04-06T11:19:18;10.85;;;6.25;;
50569;SDS011;36525;49.398;7.614;2023-04-06T11:21:46;9.98;;;6.50;;
50569;SDS011;36525;49.398;7.614;2023-04-06T11:29:24;9.82;;;6.22;;
50569;SDS011;36525;49.398;7.614;2023-04-06T11:32:01;10.25;;;6.25;;
50569;SDS011;36525;49.398;7.614;2023-04-06T11:34:33;10.10;;;6.60;;
50569;SDS011;36525;49.398;7.614;2023-04-06T11:37:12;10.35;;;6.22;;
50569;SDS011;36525;49.398;7.614;2023-04-06T11:39:46;10.55;;;6.30;;
50569;SDS011;36525;49.398;7.614;2023-04-06T11:42:23;9.77;;;5.85;;
50569;SDS011;36525;49.398;7.614;2023-04-06T11:44:56;10.00;;;6.10;;
50569;SDS011;36525;49.398;7.614;2023-04-06T11:47:28;8.93;;;6.25;;
50569;SDS011;36525;49.398;7.614;2023-04-06T11:50:06;10.00;;;5.97;;
50569;SDS011;36525;49.398;7.614;2023-04-06T11:52:35;10.05;;;5.50;;
50569;SDS011;36525;49.398;7.614;2023-04-06T11:57:44;10.80;;;6.63;;
50569;SDS011;36525;49.398;7.614;2023-04-06T12:00:12;11.18;;;6.35;;
50569;SDS011;36525;49.398;7.614;2023-04-06T12:02:40;11.35;;;7.13;;
50569;SDS011;36525;49.398;7.614;2023-04-06T12:05:13;13.15;;;7.03;;
50569;SDS011;36525;49.398;7.614;2023-04-06T12:07:41;12.57;;;7.15;;
50569;SDS011;36525;49.398;7.614;2023-04-06T12:10:09;11.15;;;6.80;;
50569;SDS011;36525;49.398;7.614;2023-04-06T12:12:36;12.60;;;8.27;;
50569;SDS011;36525;49.398;7.614;2023-04-06T12:15:04;9.70;;;6.82;;
50569;SDS011;36525;49.398;7.614;2023-04-06T12:17:32;13.80;;;8.25;;
50569;SDS011;36525;49.398;7.614;2023-04-06T12:19:59;14.77;;;8.68;;
50569;SDS011;36525;49.398;7.614;2023-04-06T12:22:43;10.68;;;6.45;;
50569;SDS011;36525;49.398;7.614;2023-04-06T12:25:10;14.05;;;7.03;;
50569;SDS011;36525;49.398;7.614;2023-04-06T12:27:38;11.82;;;7.18;;
50569;SDS011;36525;49.398;7.614;2023-04-06T12:30:05;10.60;;;6.90;;
50569;SDS011;36525;49.398;7.614;2023-04-06T12:32:33;13.43;;;6.30;;
50569;SDS011;36525;49.398;7.614;2023-04-06T12:35:00;12.18;;;6.82;;
50569;SDS011;36525;49.398;7.614;2023-04-06T12:37:27;10.65;;;6.40;;
50569;SDS011;36525;49.398;7.614;2023-04-06T12:39:54;11.23;;;7.13;;
50569;SDS011;36525;49.398;7.614;2023-04-06T12:42:21;10.45;;;6.60;;
50569;SDS011;36525;49.398;7.614;2023-04-06T12:44:48;10.98;;;6.70;;
50569;SDS011;36525;49.398;7.614;2023-04-06T12:47:16;13.43;;;7.18;;
50569;SDS011;36525;49.398;7.614;2023-04-06T12:49:44;10.88;;;5.90;;
50569;SDS011;36525;49.398;7.614;2023-04-06T12:52:12;13.32;;;7.07;;
50569;SDS011;36525;49.398;7.614;2023-04-06T12:54:39;11.98;;;6.88;;
50569;SDS011;36525;49.398;7.614;2023-04-06T12:57:07;12.55;;;7.35;;
50569;SDS011;36525;49.398;7.614;2023-04-06T12:59:35;10.90;;;6.50;;
50569;SDS011;36525;49.398;7.614;2023-04-06T13:02:03;11.13;;;6.60;;
50569;SDS011;36525;49.398;7.614;2023-04-06T13:04:32;10.75;;;7.13;;
50569;SDS011;36525;49.398;7.614;2023-04-06T13:06:59;12.25;;;7.85;;
50569;SDS011;36525;49.398;7.614;2023-04-06T13:09:26;12.18;;;7.55;;
50569;SDS011;36525;49.398;7.614;2023-04-06T13:11:53;11.18;;;7.18;;
50569;SDS011;36525;49.398;7.614;2023-04-06T13:14:20;13.27;;;7.70;;
50569;SDS011;36525;49.398;7.614;2023-04-06T13:16:48;11.88;;;7.35;;
50569;SDS011;36525;49.398;7.614;2023-04-06T13:19:15;14.68;;;7.45;;
50569;SDS011;36525;49.398;7.614;2023-04-06T13:21:42;10.13;;;6.72;;
50569;SDS011;36525;49.398;7.614;2023-04-06T13:24:09;12.93;;;7.18;;
50569;SDS011;36525;49.398;7.614;2023-04-06T13:26:36;10.38;;;6.28;;
50569;SDS011;36525;49.398;7.614;2023-04-06T13:29:04;13.13;;;7.38;;
50569;SDS011;36525;49.398;7.614;2023-04-06T13:31:31;11.98;;;6.85;;
50569;SDS011;36525;49.398;7.614;2023-04-06T13:33:58;10.15;;;6.38;;
50569;SDS011;36525;49.398;7.614;2023-04-06T13:36:25;10.63;;;6.10;;
50569;SDS011;36525;49.398;7.614;2023-04-06T13:38:53;12.55;;;6.45;;
50569;SDS011;36525;49.398;7.614;2023-04-06T13:41:22;8.55;;;5.80;;
50569;SDS011;36525;49.398;7.614;2023-04-06T13:43:52;10.30;;;5.72;;
50569;SDS011;36525;49.398;7.614;2023-04-06T13:46:19;11.98;;;7.18;;
50569;SDS011;36525;49.398;7.614;2023-04-06T13:48:46;11.80;;;6.70;;
50569;SDS011;36525;49.398;7.614;2023-04-06T13:51:14;15.85;;;7.40;;
50569;SDS011;36525;49.398;7.614;2023-04-06T13:53:44;12.63;;;7.28;;
50569;SDS011;36525;49.398;7.614;2023-04-06T13:56:11;11.32;;;6.95;;
50569;SDS011;36525;49.398;7.614;2023-04-06T13:58:38;11.82;;;6.22;;
50569;SDS011;36525;49.398;7.614;2023-04-06T14:01:06;11.73;;;6.63;;
50569;SDS011;36525;49.398;7.614;2023-04-06T14:03:36;11.80;;;6.60;;
50569;SDS011;36525;49.398;7.614;2023-04-06T14:06:09;11.88;;;7.18;;
50569;SDS011;36525;49.398;7.614;2023-04-06T14:08:52;10.85;;;5.97;;
50569;SDS011;36525;49.398;7.614;2023-04-06T14:11:19;11.05;;;6.30;;
50569;SDS011;36525;49.398;7.614;2023-04-06T14:13:46;11.15;;;6.38;;
50569;SDS011;36525;49.398;7.614;2023-04-06T14:16:13;9.52;;;6.00;;
50569;SDS011;36525;49.398;7.614;2023-04-06T14:18:41;11.45;;;5.90;;
50569;SDS011;36525;49.398;7.614;2023-04-06T14:21:08;9.45;;;5.85;;
50569;SDS011;36525;49.398;7.614;2023-04-06T14:23:36;12.02;;;6.57;;
50569;SDS011;36525;49.398;7.614;2023-04-06T14:26:04;9.00;;;6.07;;
50569;SDS011;36525;49.398;7.614;2023-04-06T14:28:33;9.98;;;5.57;;
50569;SDS011;36525;49.398;7.614;2023-04-06T14:31:01;12.95;;;6.03;;
50569;SDS011;36525;49.398;7.614;2023-04-06T14:33:35;8.77;;;5.70;;
50569;SDS011;36525;49.398;7.614;2023-04-06T14:36:03;8.57;;;5.45;;
50569;SDS011;36525;49.398;7.614;2023-04-06T14:38:31;9.73;;;5.20;;
50569;SDS011;36525;49.398;7.614;2023-04-06T14:40:58;16.77;;;4.40;;
50569;SDS011;36525;49.398;7.614;2023-04-06T14:43:26;7.40;;;4.40;;
50569;SDS011;36525;49.398;7.614;2023-04-06T14:45:53;8.25;;;4.05;;
50569;SDS011;36525;49.398;7.614;2023-04-06T14:48:21;9.88;;;5.35;;
50569;SDS011;36525;49.398;7.614;2023-04-06T14:50:52;9.07;;;6.20;;
50569;SDS011;36525;49.398;7.614;2023-04-06T14:53:19;9.55;;;5.63;;